sensor_id;sensor_type;location;lat;lon;timestamp;P1;durP1;ratioP1;P2;durP2;ratioP2
14247;SDS011;7208;49.826;6.004;2023-06-22T00:00:31;3.87;;;3.47;;
14247;SDS011;7208;49.826;6.004;2023-06-22T00:02:57;3.90;;;3.60;;
14247;SDS011;7208;49.826;6.004;2023-06-22T00:05:23;4.57;;;4.17;;
14247;SDS011;7208;49.826;6.004;2023-06-22T00:07:50;5.07;;;4.57;;
14247;SDS011;7208;49.826;6.004;2023-06-22T00:10:16;5.27;;;4.60;;
14247;SDS011;7208;49.826;6.004;2023-06-22T00:12:42;4.50;;;4.10;;
14247;SDS011;7208;49.826;6.004;2023-06-22T00:15:08;4.83;;;4.43;;
14247;SDS011;7208;49.826;6.004;2023-06-22T00:17:34;4.53;;;4.13;;
14247;SDS011;7208;49.826;6.004;2023-06-22T00:20:00;5.73;;;5.23;;
14247;SDS011;7208;49.826;6.004;2023-06-22T00:22:30;5.70;;;5.10;;
14247;SDS011;7208;49.826;6.004;2023-06-22T00:24:57;7.23;;;5.10;;
14247;SDS011;7208;49.826;6.004;2023-06-22T00:27:22;6.37;;;5.23;;
14247;SDS011;7208;49.826;6.004;2023-06-22T00:29:49;6.17;;;5.53;;
14247;SDS011;7208;49.826;6.004;2023-06-22T00:32:15;5.23;;;4.83;;
14247;SDS011;7208;49.826;6.004;2023-06-22T00:34:42;4.90;;;4.50;;
14247;SDS011;7208;49.826;6.004;2023-06-22T00:37:08;5.97;;;5.17;;
14247;SDS011;7208;49.826;6.004;2023-06-22T00:39:36;6.10;;;5.53;;
14247;SDS011;7208;49.826;6.004;2023-06-22T00:42:02;5.33;;;4.83;;
14247;SDS011;7208;49.826;6.004;2023-06-22T00:44:28;6.87;;;5.03;;
14247;SDS011;7208;49.826;6.004;2023-06-22T00:46:54;6.53;;;5.40;;
14247;SDS011;7208;49.826;6.004;2023-06-22T00:49:20;9.37;;;6.10;;
14247;SDS011;7208;49.826;6.004;2023-06-22T00:51:46;6.57;;;5.27;;
14247;SDS011;7208;49.826;6.004;2023-06-22T00:54:13;6.53;;;5.83;;
14247;SDS011;7208;49.826;6.004;2023-06-22T00:56:40;6.93;;;6.00;;
14247;SDS011;7208;49.826;6.004;2023-06-22T00:59:06;6.57;;;5.60;;
14247;SDS011;7208;49.826;6.004;2023-06-22T01:01:32;7.33;;;6.10;;
14247;SDS011;7208;49.826;6.004;2023-06-22T01:03:59;7.87;;;6.30;;
14247;SDS011;7208;49.826;6.004;2023-06-22T01:06:26;7.27;;;5.20;;
14247;SDS011;7208;49.826;6.004;2023-06-22T01:09:02;6.40;;;4.93;;
14247;SDS011;7208;49.826;6.004;2023-06-22T01:11:33;10.77;;;5.60;;
14247;SDS011;7208;49.826;6.004;2023-06-22T01:16:33;8.27;;;5.53;;
14247;SDS011;7208;49.826;6.004;2023-06-22T01:19:09;6.33;;;5.73;;
14247;SDS011;7208;49.826;6.004;2023-06-22T01:21:43;8.93;;;5.53;;
14247;SDS011;7208;49.826;6.004;2023-06-22T01:26:42;5.77;;;4.97;;
14247;SDS011;7208;49.826;6.004;2023-06-22T01:29:10;6.83;;;5.77;;
14247;SDS011;7208;49.826;6.004;2023-06-22T01:31:38;7.90;;;6.10;;
14247;SDS011;7208;49.826;6.004;2023-06-22T01:34:05;6.67;;;5.70;;
14247;SDS011;7208;49.826;6.004;2023-06-22T01:36:32;6.00;;;5.40;;
14247;SDS011;7208;49.826;6.004;2023-06-22T01:38:59;7.60;;;5.30;;
14247;SDS011;7208;49.826;6.004;2023-06-22T01:41:25;7.67;;;6.87;;
14247;SDS011;7208;49.826;6.004;2023-06-22T01:43:52;7.10;;;5.57;;
14247;SDS011;7208;49.826;6.004;2023-06-22T01:46:19;7.77;;;7.03;;
14247;SDS011;7208;49.826;6.004;2023-06-22T01:48:46;6.70;;;6.03;;
14247;SDS011;7208;49.826;6.004;2023-06-22T01:51:13;7.40;;;6.30;;
14247;SDS011;7208;49.826;6.004;2023-06-22T01:53:39;7.53;;;6.47;;
14247;SDS011;7208;49.826;6.004;2023-06-22T01:56:05;7.43;;;5.70;;
14247;SDS011;7208;49.826;6.004;2023-06-22T01:58:31;7.00;;;6.27;;
14247;SDS011;7208;49.826;6.004;2023-06-22T02:01:11;9.60;;;6.77;;
14247;SDS011;7208;49.826;6.004;2023-06-22T02:03:41;7.03;;;6.30;;
14247;SDS011;7208;49.826;6.004;2023-06-22T02:06:16;8.00;;;6.30;;
14247;SDS011;7208;49.826;6.004;2023-06-22T02:08:49;8.70;;;6.50;;
14247;SDS011;7208;49.826;6.004;2023-06-22T02:11:18;7.00;;;6.30;;
14247;SDS011;7208;49.826;6.004;2023-06-22T02:13:45;7.13;;;6.43;;
14247;SDS011;7208;49.826;6.004;2023-06-22T02:16:11;8.07;;;7.20;;
14247;SDS011;7208;49.826;6.004;2023-06-22T02:18:38;7.53;;;6.50;;
14247;SDS011;7208;49.826;6.004;2023-06-22T02:21:05;10.43;;;7.10;;
14247;SDS011;7208;49.826;6.004;2023-06-22T02:23:32;7.73;;;6.93;;
14247;SDS011;7208;49.826;6.004;2023-06-22T02:26:01;10.77;;;7.17;;
14247;SDS011;7208;49.826;6.004;2023-06-22T02:28:27;7.57;;;6.80;;
14247;SDS011;7208;49.826;6.004;2023-06-22T02:30:53;6.97;;;6.23;;
14247;SDS011;7208;49.826;6.004;2023-06-22T02:33:19;8.63;;;7.70;;
14247;SDS011;7208;49.826;6.004;2023-06-22T02:35:45;6.97;;;6.23;;
14247;SDS011;7208;49.826;6.004;2023-06-22T02:38:14;7.03;;;6.30;;
14247;SDS011;7208;49.826;6.004;2023-06-22T02:40:40;8.73;;;6.27;;
14247;SDS011;7208;49.826;6.004;2023-06-22T02:43:06;8.63;;;7.90;;
14247;SDS011;7208;49.826;6.004;2023-06-22T02:45:32;8.67;;;7.80;;
14247;SDS011;7208;49.826;6.004;2023-06-22T02:47:58;9.63;;;8.47;;
14247;SDS011;7208;49.826;6.004;2023-06-22T02:50:24;10.17;;;8.33;;
14247;SDS011;7208;49.826;6.004;2023-06-22T02:52:50;7.77;;;6.97;;
14247;SDS011;7208;49.826;6.004;2023-06-22T02:55:16;8.50;;;6.60;;
14247;SDS011;7208;49.826;6.004;2023-06-22T02:57:43;9.27;;;7.73;;
14247;SDS011;7208;49.826;6.004;2023-06-22T03:00:12;8.73;;;7.17;;
14247;SDS011;7208;49.826;6.004;2023-06-22T03:02:42;8.73;;;7.40;;
14247;SDS011;7208;49.826;6.004;2023-06-22T03:05:08;7.83;;;7.03;;
14247;SDS011;7208;49.826;6.004;2023-06-22T03:07:38;8.00;;;6.37;;
14247;SDS011;7208;49.826;6.004;2023-06-22T03:10:04;8.37;;;6.93;;
14247;SDS011;7208;49.826;6.004;2023-06-22T03:12:30;9.03;;;6.83;;
14247;SDS011;7208;49.826;6.004;2023-06-22T03:14:56;8.13;;;7.33;;
14247;SDS011;7208;49.826;6.004;2023-06-22T03:17:23;9.27;;;7.40;;
14247;SDS011;7208;49.826;6.004;2023-06-22T03:19:49;7.10;;;6.40;;
14247;SDS011;7208;49.826;6.004;2023-06-22T03:22:15;8.00;;;7.10;;
14247;SDS011;7208;49.826;6.004;2023-06-22T03:24:41;8.20;;;6.93;;
14247;SDS011;7208;49.826;6.004;2023-06-22T03:27:07;7.40;;;6.43;;
14247;SDS011;7208;49.826;6.004;2023-06-22T03:29:33;9.53;;;8.07;;
14247;SDS011;7208;49.826;6.004;2023-06-22T03:31:59;8.90;;;7.63;;
14247;SDS011;7208;49.826;6.004;2023-06-22T03:34:25;8.77;;;7.30;;
14247;SDS011;7208;49.826;6.004;2023-06-22T03:36:51;8.63;;;7.73;;
14247;SDS011;7208;49.826;6.004;2023-06-22T03:39:17;9.40;;;7.33;;
14247;SDS011;7208;49.826;6.004;2023-06-22T03:41:43;9.20;;;7.60;;
14247;SDS011;7208;49.826;6.004;2023-06-22T03:44:09;10.00;;;8.33;;
14247;SDS011;7208;49.826;6.004;2023-06-22T03:46:37;8.23;;;7.40;;
14247;SDS011;7208;49.826;6.004;2023-06-22T03:49:03;11.83;;;8.10;;
14247;SDS011;7208;49.826;6.004;2023-06-22T03:51:30;8.80;;;7.87;;
14247;SDS011;7208;49.826;6.004;2023-06-22T03:53:56;9.93;;;8.63;;
14247;SDS011;7208;49.826;6.004;2023-06-22T03:56:22;9.40;;;8.13;;
14247;SDS011;7208;49.826;6.004;2023-06-22T03:58:48;7.83;;;7.13;;
14247;SDS011;7208;49.826;6.004;2023-06-22T04:01:14;7.77;;;7.03;;
14247;SDS011;7208;49.826;6.004;2023-06-22T04:03:42;8.13;;;6.87;;
14247;SDS011;7208;49.826;6.004;2023-06-22T04:06:08;9.53;;;7.43;;
14247;SDS011;7208;49.826;6.004;2023-06-22T04:08:34;9.23;;;8.13;;
14247;SDS011;7208;49.826;6.004;2023-06-22T04:11:00;10.23;;;8.53;;
14247;SDS011;7208;49.826;6.004;2023-06-22T04:13:26;10.17;;;9.07;;
14247;SDS011;7208;49.826;6.004;2023-06-22T04:15:52;9.70;;;8.80;;
14247;SDS011;7208;49.826;6.004;2023-06-22T04:18:19;11.10;;;7.90;;
14247;SDS011;7208;49.826;6.004;2023-06-22T04:20:45;8.17;;;7.33;;
14247;SDS011;7208;49.826;6.004;2023-06-22T04:23:12;8.93;;;8.03;;
14247;SDS011;7208;49.826;6.004;2023-06-22T04:25:38;8.63;;;7.57;;
14247;SDS011;7208;49.826;6.004;2023-06-22T04:28:04;8.40;;;7.60;;
14247;SDS011;7208;49.826;6.004;2023-06-22T04:30:40;10.47;;;8.40;;
14247;SDS011;7208;49.826;6.004;2023-06-22T04:33:12;11.27;;;8.27;;
14247;SDS011;7208;49.826;6.004;2023-06-22T04:35:38;10.57;;;9.37;;
14247;SDS011;7208;49.826;6.004;2023-06-22T04:38:06;10.00;;;8.00;;
14247;SDS011;7208;49.826;6.004;2023-06-22T04:40:32;12.47;;;9.23;;
14247;SDS011;7208;49.826;6.004;2023-06-22T04:42:58;11.00;;;9.90;;
14247;SDS011;7208;49.826;6.004;2023-06-22T04:45:27;11.33;;;10.13;;
14247;SDS011;7208;49.826;6.004;2023-06-22T04:47:54;12.20;;;9.77;;
14247;SDS011;7208;49.826;6.004;2023-06-22T04:50:20;9.93;;;9.00;;
14247;SDS011;7208;49.826;6.004;2023-06-22T04:52:47;12.67;;;9.63;;
14247;SDS011;7208;49.826;6.004;2023-06-22T04:55:14;11.20;;;10.13;;
14247;SDS011;7208;49.826;6.004;2023-06-22T04:57:48;9.57;;;8.67;;
14247;SDS011;7208;49.826;6.004;2023-06-22T05:00:15;10.97;;;8.43;;
14247;SDS011;7208;49.826;6.004;2023-06-22T05:02:42;13.53;;;10.00;;
14247;SDS011;7208;49.826;6.004;2023-06-22T05:05:09;10.33;;;9.30;;
14247;SDS011;7208;49.826;6.004;2023-06-22T05:07:38;10.70;;;9.60;;
14247;SDS011;7208;49.826;6.004;2023-06-22T05:10:07;9.60;;;8.40;;
14247;SDS011;7208;49.826;6.004;2023-06-22T05:12:33;10.27;;;9.00;;
14247;SDS011;7208;49.826;6.004;2023-06-22T05:15:00;10.10;;;9.10;;
14247;SDS011;7208;49.826;6.004;2023-06-22T05:17:26;11.73;;;9.20;;
14247;SDS011;7208;49.826;6.004;2023-06-22T05:21:13;10.93;;;9.90;;
14247;SDS011;7208;49.826;6.004;2023-06-22T05:23:38;12.13;;;9.47;;
14247;SDS011;7208;49.826;6.004;2023-06-22T05:26:04;12.00;;;10.30;;
14247;SDS011;7208;49.826;6.004;2023-06-22T05:28:29;11.93;;;10.27;;
14247;SDS011;7208;49.826;6.004;2023-06-22T05:30:55;10.07;;;8.97;;
14247;SDS011;7208;49.826;6.004;2023-06-22T05:33:21;12.27;;;10.80;;
14247;SDS011;7208;49.826;6.004;2023-06-22T05:35:46;11.37;;;10.20;;
14247;SDS011;7208;49.826;6.004;2023-06-22T05:38:13;10.97;;;9.87;;
14247;SDS011;7208;49.826;6.004;2023-06-22T05:40:39;11.70;;;9.50;;
14247;SDS011;7208;49.826;6.004;2023-06-22T05:43:05;11.70;;;9.90;;
14247;SDS011;7208;49.826;6.004;2023-06-22T05:45:30;11.47;;;10.27;;
14247;SDS011;7208;49.826;6.004;2023-06-22T05:47:56;12.43;;;10.33;;
14247;SDS011;7208;49.826;6.004;2023-06-22T05:50:21;11.80;;;10.60;;
14247;SDS011;7208;49.826;6.004;2023-06-22T05:52:47;10.20;;;9.20;;
14247;SDS011;7208;49.826;6.004;2023-06-22T05:55:12;10.63;;;9.57;;
14247;SDS011;7208;49.826;6.004;2023-06-22T05:57:38;10.23;;;9.13;;
14247;SDS011;7208;49.826;6.004;2023-06-22T06:00:04;9.97;;;8.90;;
14247;SDS011;7208;49.826;6.004;2023-06-22T06:02:35;11.20;;;8.93;;
14247;SDS011;7208;49.826;6.004;2023-06-22T06:05:01;10.30;;;9.37;;
14247;SDS011;7208;49.826;6.004;2023-06-22T06:07:27;11.63;;;10.40;;
14247;SDS011;7208;49.826;6.004;2023-06-22T06:09:54;10.03;;;9.00;;
14247;SDS011;7208;49.826;6.004;2023-06-22T06:12:19;9.17;;;8.27;;
14247;SDS011;7208;49.826;6.004;2023-06-22T06:14:45;9.07;;;8.27;;
14247;SDS011;7208;49.826;6.004;2023-06-22T06:17:12;8.77;;;7.93;;
14247;SDS011;7208;49.826;6.004;2023-06-22T06:19:38;11.80;;;8.90;;
14247;SDS011;7208;49.826;6.004;2023-06-22T06:22:04;7.90;;;7.20;;
14247;SDS011;7208;49.826;6.004;2023-06-22T06:24:29;7.70;;;7.10;;
14247;SDS011;7208;49.826;6.004;2023-06-22T06:26:55;8.23;;;7.40;;
14247;SDS011;7208;49.826;6.004;2023-06-22T06:29:20;8.43;;;7.73;;
14247;SDS011;7208;49.826;6.004;2023-06-22T06:31:48;7.50;;;6.93;;
14247;SDS011;7208;49.826;6.004;2023-06-22T06:34:14;8.97;;;7.97;;
14247;SDS011;7208;49.826;6.004;2023-06-22T06:36:40;8.20;;;7.60;;
14247;SDS011;7208;49.826;6.004;2023-06-22T06:39:05;8.07;;;7.37;;
14247;SDS011;7208;49.826;6.004;2023-06-22T06:41:31;9.00;;;8.20;;
14247;SDS011;7208;49.826;6.004;2023-06-22T06:43:56;7.43;;;6.83;;
14247;SDS011;7208;49.826;6.004;2023-06-22T06:46:22;7.90;;;7.20;;
14247;SDS011;7208;49.826;6.004;2023-06-22T06:48:48;7.90;;;7.20;;
14247;SDS011;7208;49.826;6.004;2023-06-22T06:51:13;7.77;;;7.17;;
14247;SDS011;7208;49.826;6.004;2023-06-22T06:53:39;7.17;;;6.57;;
14247;SDS011;7208;49.826;6.004;2023-06-22T06:56:04;6.97;;;6.37;;
14247;SDS011;7208;49.826;6.004;2023-06-22T06:58:30;6.87;;;6.27;;
14247;SDS011;7208;49.826;6.004;2023-06-22T07:00:56;6.80;;;6.30;;
14247;SDS011;7208;49.826;6.004;2023-06-22T07:03:22;6.77;;;6.17;;
14247;SDS011;7208;49.826;6.004;2023-06-22T07:05:47;6.50;;;6.00;;
14247;SDS011;7208;49.826;6.004;2023-06-22T07:08:13;6.53;;;5.93;;
14247;SDS011;7208;49.826;6.004;2023-06-22T07:10:39;5.77;;;5.30;;
14247;SDS011;7208;49.826;6.004;2023-06-22T07:13:04;6.00;;;5.50;;
14247;SDS011;7208;49.826;6.004;2023-06-22T07:15:30;6.30;;;5.80;;
14247;SDS011;7208;49.826;6.004;2023-06-22T07:17:55;5.77;;;5.37;;
14247;SDS011;7208;49.826;6.004;2023-06-22T07:20:21;7.10;;;6.50;;
14247;SDS011;7208;49.826;6.004;2023-06-22T07:22:47;6.27;;;5.77;;
14247;SDS011;7208;49.826;6.004;2023-06-22T07:25:12;6.50;;;5.40;;
14247;SDS011;7208;49.826;6.004;2023-06-22T07:30:12;5.67;;;5.23;;
14247;SDS011;7208;49.826;6.004;2023-06-22T07:32:39;5.83;;;5.30;;
14247;SDS011;7208;49.826;6.004;2023-06-22T07:35:05;6.17;;;5.63;;
14247;SDS011;7208;49.826;6.004;2023-06-22T07:37:31;5.73;;;5.10;;
14247;SDS011;7208;49.826;6.004;2023-06-22T07:39:58;5.50;;;5.10;;
14247;SDS011;7208;49.826;6.004;2023-06-22T07:42:24;5.40;;;5.00;;
14247;SDS011;7208;49.826;6.004;2023-06-22T07:44:51;5.17;;;4.77;;
14247;SDS011;7208;49.826;6.004;2023-06-22T07:47:16;5.50;;;5.10;;
14247;SDS011;7208;49.826;6.004;2023-06-22T07:49:45;5.97;;;5.47;;
14247;SDS011;7208;49.826;6.004;2023-06-22T07:52:11;5.43;;;4.97;;
14247;SDS011;7208;49.826;6.004;2023-06-22T07:54:37;5.10;;;4.70;;
14247;SDS011;7208;49.826;6.004;2023-06-22T07:57:03;5.00;;;4.60;;
14247;SDS011;7208;49.826;6.004;2023-06-22T07:59:29;5.03;;;4.70;;
14247;SDS011;7208;49.826;6.004;2023-06-22T08:01:55;5.80;;;5.30;;
14247;SDS011;7208;49.826;6.004;2023-06-22T08:04:21;5.37;;;4.97;;
14247;SDS011;7208;49.826;6.004;2023-06-22T08:06:46;5.77;;;5.37;;
14247;SDS011;7208;49.826;6.004;2023-06-22T08:09:12;5.57;;;5.17;;
14247;SDS011;7208;49.826;6.004;2023-06-22T08:11:37;5.87;;;5.37;;
14247;SDS011;7208;49.826;6.004;2023-06-22T08:14:03;5.33;;;4.83;;
14247;SDS011;7208;49.826;6.004;2023-06-22T08:16:29;5.37;;;4.87;;
14247;SDS011;7208;49.826;6.004;2023-06-22T08:18:54;5.33;;;4.93;;
14247;SDS011;7208;49.826;6.004;2023-06-22T08:21:21;5.23;;;4.73;;
14247;SDS011;7208;49.826;6.004;2023-06-22T08:23:46;6.17;;;5.67;;
14247;SDS011;7208;49.826;6.004;2023-06-22T08:26:13;6.10;;;5.60;;
14247;SDS011;7208;49.826;6.004;2023-06-22T08:28:39;5.63;;;5.20;;
14247;SDS011;7208;49.826;6.004;2023-06-22T08:31:05;6.57;;;6.00;;
14247;SDS011;7208;49.826;6.004;2023-06-22T08:33:31;5.83;;;5.33;;
14247;SDS011;7208;49.826;6.004;2023-06-22T08:35:57;6.60;;;6.10;;
14247;SDS011;7208;49.826;6.004;2023-06-22T08:38:24;6.90;;;5.80;;
14247;SDS011;7208;49.826;6.004;2023-06-22T08:40:49;6.10;;;5.43;;
14247;SDS011;7208;49.826;6.004;2023-06-22T08:43:15;7.17;;;6.57;;
14247;SDS011;7208;49.826;6.004;2023-06-22T08:45:41;6.47;;;5.87;;
14247;SDS011;7208;49.826;6.004;2023-06-22T08:48:06;7.03;;;6.33;;
14247;SDS011;7208;49.826;6.004;2023-06-22T08:50:32;7.67;;;6.97;;
14247;SDS011;7208;49.826;6.004;2023-06-22T08:52:58;8.77;;;7.73;;
14247;SDS011;7208;49.826;6.004;2023-06-22T08:55:23;8.43;;;7.57;;
14247;SDS011;7208;49.826;6.004;2023-06-22T08:57:49;8.10;;;7.30;;
14247;SDS011;7208;49.826;6.004;2023-06-22T09:00:15;8.83;;;8.03;;
14247;SDS011;7208;49.826;6.004;2023-06-22T09:02:43;7.57;;;6.83;;
14247;SDS011;7208;49.826;6.004;2023-06-22T09:05:09;9.07;;;8.17;;
14247;SDS011;7208;49.826;6.004;2023-06-22T09:07:35;8.90;;;8.10;;
14247;SDS011;7208;49.826;6.004;2023-06-22T09:10:00;9.00;;;7.80;;
14247;SDS011;7208;49.826;6.004;2023-06-22T09:12:29;8.57;;;7.67;;
14247;SDS011;7208;49.826;6.004;2023-06-22T09:14:55;9.03;;;7.33;;
14247;SDS011;7208;49.826;6.004;2023-06-22T09:17:21;9.00;;;8.13;;
14247;SDS011;7208;49.826;6.004;2023-06-22T09:19:47;9.63;;;8.63;;
14247;SDS011;7208;49.826;6.004;2023-06-22T09:22:13;9.73;;;8.83;;
14247;SDS011;7208;49.826;6.004;2023-06-22T09:24:39;10.43;;;9.50;;
14247;SDS011;7208;49.826;6.004;2023-06-22T09:27:05;10.57;;;9.67;;
14247;SDS011;7208;49.826;6.004;2023-06-22T09:29:31;11.40;;;10.30;;
14247;SDS011;7208;49.826;6.004;2023-06-22T09:31:59;10.77;;;9.67;;
14247;SDS011;7208;49.826;6.004;2023-06-22T09:34:25;9.87;;;9.03;;
14247;SDS011;7208;49.826;6.004;2023-06-22T09:36:50;10.47;;;9.57;;
14247;SDS011;7208;49.826;6.004;2023-06-22T09:39:17;10.30;;;9.10;;
14247;SDS011;7208;49.826;6.004;2023-06-22T09:41:43;11.90;;;10.70;;
14247;SDS011;7208;49.826;6.004;2023-06-22T09:44:09;11.17;;;10.10;;
14247;SDS011;7208;49.826;6.004;2023-06-22T09:46:35;11.70;;;10.60;;
14247;SDS011;7208;49.826;6.004;2023-06-22T09:49:00;11.40;;;10.23;;
14247;SDS011;7208;49.826;6.004;2023-06-22T09:51:26;11.17;;;10.07;;
14247;SDS011;7208;49.826;6.004;2023-06-22T09:53:52;11.57;;;10.43;;
14247;SDS011;7208;49.826;6.004;2023-06-22T09:56:19;12.33;;;10.00;;
14247;SDS011;7208;49.826;6.004;2023-06-22T09:58:45;11.83;;;10.70;;
14247;SDS011;7208;49.826;6.004;2023-06-22T10:01:11;14.67;;;11.80;;
14247;SDS011;7208;49.826;6.004;2023-06-22T10:03:41;13.50;;;12.10;;
14247;SDS011;7208;49.826;6.004;2023-06-22T10:06:06;14.67;;;12.97;;
14247;SDS011;7208;49.826;6.004;2023-06-22T10:08:33;15.57;;;13.30;;
14247;SDS011;7208;49.826;6.004;2023-06-22T10:10:59;12.83;;;11.63;;
14247;SDS011;7208;49.826;6.004;2023-06-22T10:13:25;12.90;;;11.60;;
14247;SDS011;7208;49.826;6.004;2023-06-22T10:15:51;13.23;;;11.97;;
14247;SDS011;7208;49.826;6.004;2023-06-22T10:18:20;12.17;;;10.53;;
14247;SDS011;7208;49.826;6.004;2023-06-22T10:20:49;9.73;;;8.93;;
14247;SDS011;7208;49.826;6.004;2023-06-22T10:23:21;8.93;;;8.23;;
14247;SDS011;7208;49.826;6.004;2023-06-22T10:25:47;7.80;;;7.20;;
14247;SDS011;7208;49.826;6.004;2023-06-22T10:28:13;7.00;;;6.40;;
14247;SDS011;7208;49.826;6.004;2023-06-22T10:30:39;7.57;;;6.97;;
14247;SDS011;7208;49.826;6.004;2023-06-22T10:33:06;7.13;;;6.53;;
14247;SDS011;7208;49.826;6.004;2023-06-22T10:35:33;6.23;;;5.73;;
14247;SDS011;7208;49.826;6.004;2023-06-22T10:37:59;6.07;;;5.43;;
14247;SDS011;7208;49.826;6.004;2023-06-22T10:40:24;5.57;;;5.07;;
14247;SDS011;7208;49.826;6.004;2023-06-22T10:42:50;6.40;;;5.90;;
14247;SDS011;7208;49.826;6.004;2023-06-22T10:45:18;6.30;;;5.70;;
14247;SDS011;7208;49.826;6.004;2023-06-22T10:47:44;6.30;;;5.80;;
14247;SDS011;7208;49.826;6.004;2023-06-22T10:50:09;6.03;;;5.53;;
14247;SDS011;7208;49.826;6.004;2023-06-22T10:52:35;6.27;;;5.83;;
14247;SDS011;7208;49.826;6.004;2023-06-22T10:55:01;6.83;;;6.30;;
14247;SDS011;7208;49.826;6.004;2023-06-22T10:57:27;7.17;;;6.57;;
14247;SDS011;7208;49.826;6.004;2023-06-22T10:59:53;6.17;;;5.67;;
14247;SDS011;7208;49.826;6.004;2023-06-22T11:02:18;6.77;;;6.27;;
14247;SDS011;7208;49.826;6.004;2023-06-22T11:04:44;7.70;;;7.13;;
14247;SDS011;7208;49.826;6.004;2023-06-22T11:07:11;7.73;;;6.93;;
14247;SDS011;7208;49.826;6.004;2023-06-22T11:09:36;6.50;;;5.97;;
14247;SDS011;7208;49.826;6.004;2023-06-22T11:12:03;6.40;;;5.90;;
14247;SDS011;7208;49.826;6.004;2023-06-22T11:14:29;6.43;;;5.93;;
14247;SDS011;7208;49.826;6.004;2023-06-22T11:16:56;5.50;;;5.10;;
14247;SDS011;7208;49.826;6.004;2023-06-22T11:19:22;6.73;;;6.00;;
14247;SDS011;7208;49.826;6.004;2023-06-22T11:21:51;5.90;;;5.40;;
14247;SDS011;7208;49.826;6.004;2023-06-22T11:24:18;6.17;;;5.77;;
14247;SDS011;7208;49.826;6.004;2023-06-22T11:26:43;6.65;;;6.15;;
14247;SDS011;7208;49.826;6.004;2023-06-22T11:29:10;5.97;;;5.47;;
14247;SDS011;7208;49.826;6.004;2023-06-22T11:31:36;5.88;;;5.40;;
14247;SDS011;7208;49.826;6.004;2023-06-22T11:34:02;5.30;;;4.90;;
14247;SDS011;7208;49.826;6.004;2023-06-22T11:36:28;5.30;;;4.90;;
14247;SDS011;7208;49.826;6.004;2023-06-22T11:38:57;5.18;;;4.78;;
14247;SDS011;7208;49.826;6.004;2023-06-22T11:41:23;5.45;;;4.95;;
14247;SDS011;7208;49.826;6.004;2023-06-22T11:43:49;4.93;;;4.57;;
14247;SDS011;7208;49.826;6.004;2023-06-22T11:46:14;4.88;;;4.45;;
14247;SDS011;7208;49.826;6.004;2023-06-22T11:48:40;4.57;;;4.20;;
14247;SDS011;7208;49.826;6.004;2023-06-22T11:51:06;4.22;;;3.90;;
14247;SDS011;7208;49.826;6.004;2023-06-22T11:53:33;5.22;;;4.75;;
14247;SDS011;7208;49.826;6.004;2023-06-22T11:55:59;5.25;;;4.85;;
14247;SDS011;7208;49.826;6.004;2023-06-22T11:58:26;5.38;;;4.97;;
14247;SDS011;7208;49.826;6.004;2023-06-22T12:00:51;4.68;;;4.28;;
14247;SDS011;7208;49.826;6.004;2023-06-22T12:03:17;5.18;;;4.75;;
14247;SDS011;7208;49.826;6.004;2023-06-22T12:05:43;5.32;;;4.80;;
14247;SDS011;7208;49.826;6.004;2023-06-22T12:08:09;4.57;;;4.18;;
14247;SDS011;7208;49.826;6.004;2023-06-22T12:10:35;4.75;;;4.35;;
14247;SDS011;7208;49.826;6.004;2023-06-22T12:13:00;5.50;;;4.88;;
14247;SDS011;7208;49.826;6.004;2023-06-22T12:15:26;4.93;;;4.53;;
14247;SDS011;7208;49.826;6.004;2023-06-22T12:17:52;4.70;;;4.40;;
14247;SDS011;7208;49.826;6.004;2023-06-22T12:20:18;6.38;;;5.80;;
14247;SDS011;7208;49.826;6.004;2023-06-22T12:22:43;5.20;;;4.80;;
14247;SDS011;7208;49.826;6.004;2023-06-22T12:25:09;6.13;;;5.63;;
14247;SDS011;7208;49.826;6.004;2023-06-22T12:27:35;5.38;;;4.97;;
14247;SDS011;7208;49.826;6.004;2023-06-22T12:30:02;4.60;;;4.30;;
14247;SDS011;7208;49.826;6.004;2023-06-22T12:32:28;5.35;;;4.85;;
14247;SDS011;7208;49.826;6.004;2023-06-22T12:34:54;4.80;;;4.40;;
14247;SDS011;7208;49.826;6.004;2023-06-22T12:37:20;5.20;;;4.78;;
14247;SDS011;7208;49.826;6.004;2023-06-22T12:39:45;4.68;;;4.38;;
14247;SDS011;7208;49.826;6.004;2023-06-22T12:42:11;5.05;;;4.65;;
14247;SDS011;7208;49.826;6.004;2023-06-22T12:44:37;5.00;;;4.60;;
14247;SDS011;7208;49.826;6.004;2023-06-22T12:47:04;4.68;;;4.32;;
14247;SDS011;7208;49.826;6.004;2023-06-22T12:49:30;5.25;;;4.75;;
14247;SDS011;7208;49.826;6.004;2023-06-22T12:51:56;4.63;;;4.30;;
14247;SDS011;7208;49.826;6.004;2023-06-22T12:54:22;5.28;;;4.78;;
14247;SDS011;7208;49.826;6.004;2023-06-22T12:56:47;5.13;;;4.22;;
14247;SDS011;7208;49.826;6.004;2023-06-22T12:59:14;4.57;;;4.20;;
14247;SDS011;7208;49.826;6.004;2023-06-22T13:01:42;4.13;;;3.83;;
14247;SDS011;7208;49.826;6.004;2023-06-22T13:04:09;4.57;;;4.18;;
14247;SDS011;7208;49.826;6.004;2023-06-22T13:06:36;5.05;;;4.65;;
14247;SDS011;7208;49.826;6.004;2023-06-22T13:09:01;4.55;;;4.25;;
14247;SDS011;7208;49.826;6.004;2023-06-22T13:11:30;3.95;;;3.65;;
14247;SDS011;7208;49.826;6.004;2023-06-22T13:13:55;4.75;;;3.83;;
14247;SDS011;7208;49.826;6.004;2023-06-22T13:16:21;4.78;;;4.38;;
14247;SDS011;7208;49.826;6.004;2023-06-22T13:18:47;4.28;;;3.88;;
14247;SDS011;7208;49.826;6.004;2023-06-22T13:21:12;4.72;;;4.30;;
14247;SDS011;7208;49.826;6.004;2023-06-22T13:23:39;4.57;;;4.27;;
14247;SDS011;7208;49.826;6.004;2023-06-22T13:26:05;4.70;;;4.30;;
14247;SDS011;7208;49.826;6.004;2023-06-22T13:28:30;5.40;;;4.90;;
14247;SDS011;7208;49.826;6.004;2023-06-22T13:30:56;5.43;;;4.93;;
14247;SDS011;7208;49.826;6.004;2023-06-22T13:33:22;5.40;;;4.90;;
14247;SDS011;7208;49.826;6.004;2023-06-22T13:35:47;5.80;;;5.33;;
14247;SDS011;7208;49.826;6.004;2023-06-22T13:38:13;4.37;;;3.97;;
14247;SDS011;7208;49.826;6.004;2023-06-22T13:40:39;5.00;;;4.13;;
14247;SDS011;7208;49.826;6.004;2023-06-22T13:43:04;5.00;;;4.47;;
14247;SDS011;7208;49.826;6.004;2023-06-22T13:45:30;4.17;;;3.77;;
14247;SDS011;7208;49.826;6.004;2023-06-22T13:47:56;4.27;;;3.43;;
14247;SDS011;7208;49.826;6.004;2023-06-22T13:50:22;4.53;;;3.67;;
14247;SDS011;7208;49.826;6.004;2023-06-22T13:52:48;4.00;;;3.70;;
14247;SDS011;7208;49.826;6.004;2023-06-22T13:55:13;3.90;;;3.53;;
14247;SDS011;7208;49.826;6.004;2023-06-22T13:57:39;5.10;;;3.50;;
14247;SDS011;7208;49.826;6.004;2023-06-22T14:00:06;4.67;;;4.27;;
14247;SDS011;7208;49.826;6.004;2023-06-22T14:02:33;3.77;;;3.43;;
14247;SDS011;7208;49.826;6.004;2023-06-22T14:04:59;2.37;;;1.67;;
14247;SDS011;7208;49.826;6.004;2023-06-22T14:07:24;1.60;;;1.50;;
14247;SDS011;7208;49.826;6.004;2023-06-22T14:09:50;1.33;;;1.23;;
14247;SDS011;7208;49.826;6.004;2023-06-22T14:12:16;1.40;;;1.30;;
14247;SDS011;7208;49.826;6.004;2023-06-22T14:14:44;2.77;;;2.13;;
14247;SDS011;7208;49.826;6.004;2023-06-22T14:17:10;1.73;;;0.90;;
14247;SDS011;7208;49.826;6.004;2023-06-22T14:19:36;1.20;;;1.00;;
14247;SDS011;7208;49.826;6.004;2023-06-22T14:22:02;1.20;;;1.10;;
14247;SDS011;7208;49.826;6.004;2023-06-22T14:24:28;1.63;;;0.90;;
14247;SDS011;7208;49.826;6.004;2023-06-22T14:26:54;0.87;;;0.87;;
14247;SDS011;7208;49.826;6.004;2023-06-22T14:29:21;1.00;;;1.00;;
14247;SDS011;7208;49.826;6.004;2023-06-22T14:31:47;2.90;;;1.27;;
14247;SDS011;7208;49.826;6.004;2023-06-22T14:34:13;6.00;;;1.57;;
14247;SDS011;7208;49.826;6.004;2023-06-22T14:36:39;1.80;;;1.20;;
14247;SDS011;7208;49.826;6.004;2023-06-22T14:39:05;1.40;;;1.30;;
14247;SDS011;7208;49.826;6.004;2023-06-22T14:41:31;2.00;;;1.87;;
14247;SDS011;7208;49.826;6.004;2023-06-22T14:43:57;1.30;;;1.20;;
14247;SDS011;7208;49.826;6.004;2023-06-22T14:46:23;1.50;;;1.40;;
14247;SDS011;7208;49.826;6.004;2023-06-22T14:48:49;1.80;;;1.70;;
14247;SDS011;7208;49.826;6.004;2023-06-22T14:51:14;2.17;;;1.80;;
14247;SDS011;7208;49.826;6.004;2023-06-22T14:53:41;1.70;;;1.60;;
14247;SDS011;7208;49.826;6.004;2023-06-22T14:56:08;1.87;;;1.63;;
14247;SDS011;7208;49.826;6.004;2023-06-22T14:58:34;1.67;;;1.57;;
14247;SDS011;7208;49.826;6.004;2023-06-22T15:01:00;1.43;;;1.33;;